createdAt,value
2022-09-07T00:01:07.471Z,98855.69
2022-09-07T00:03:36.034Z,98845.81
2022-09-07T00:06:11.349Z,98841.94
2022-09-07T00:08:43.700Z,98851.06
2022-09-07T00:11:17.971Z,98839.53
2022-09-07T00:13:49.363Z,98843.38
2022-09-07T00:16:25.762Z,98848.84
2022-09-07T00:18:56.195Z,98844.22
2022-09-07T00:21:24.737Z,98840.78
2022-09-07T00:23:54.216Z,98837.75
2022-09-07T00:26:29.663Z,98827.41
2022-09-07T00:29:00.826Z,98829.63
2022-09-07T00:31:30.831Z,98824.78
2022-09-07T00:34:01.203Z,98828.63
2022-09-07T00:36:29.770Z,98827.59
2022-09-07T00:38:58.399Z,98838.75
2022-09-07T00:41:26.097Z,98822.56
2022-09-07T00:43:57.980Z,98825.59
2022-09-07T00:46:29.924Z,98826.41
2022-09-07T00:49:19.901Z,98835.94
2022-09-07T00:51:54.147Z,98825.19
2022-09-07T00:54:39.970Z,98820.13
2022-09-07T00:57:07.882Z,98817.69
2022-09-07T00:59:45.204Z,98817.28
2022-09-07T01:02:17.264Z,98813.03
2022-09-07T01:04:50.802Z,98813.03
2022-09-07T01:07:19.197Z,98805.75
2022-09-07T01:09:47.587Z,98802.91
2022-09-07T01:12:15.233Z,98801.28
2022-09-07T01:14:50.699Z,98801.91
2022-09-07T01:18:16.362Z,98803.13
2022-09-07T01:21:08.279Z,98795.41
2022-09-07T01:24:19.259Z,98785.72
2022-09-07T01:27:44.186Z,98789.53
2022-09-07T01:30:16.977Z,98790.13
2022-09-07T01:33:09.742Z,98796.19
2022-09-07T01:36:12.710Z,98789.31
2022-09-07T01:38:53.166Z,98796.84
2022-09-07T01:41:38.854Z,98797.25
2022-09-07T01:44:24.978Z,98787.72
2022-09-07T01:47:35.960Z,98780.81
2022-09-07T01:50:16.645Z,98782.22
2022-09-07T01:53:06.328Z,98784.25
2022-09-07T01:55:47.932Z,98785.06
2022-09-07T01:58:23.273Z,98783.88
2022-09-07T02:01:00.267Z,98788.09
2022-09-07T02:03:42.195Z,98784.44
2022-09-07T02:06:24.442Z,98777.56
2022-09-07T02:09:06.477Z,98768.41
2022-09-07T02:11:39.441Z,98770.25
2022-09-07T02:14:37.626Z,98765.63
2022-09-07T02:17:21.583Z,98773.31
2022-09-07T02:20:04.909Z,98769.28
2022-09-07T02:22:39.125Z,98769.06
2022-09-07T02:25:11.091Z,98762.19
2022-09-07T02:27:53.028Z,98758.53
2022-09-07T02:30:20.606Z,98755.91
2022-09-07T02:32:49.066Z,98756.47
2022-09-07T02:35:17.066Z,98756.88
2022-09-07T02:37:45.735Z,98754.47
2022-09-07T02:40:14.796Z,98753.84
2022-09-07T02:42:45.386Z,98755.66
2022-09-07T02:45:15.601Z,98757.72
2022-09-07T02:48:28.371Z,98757.72
2022-09-07T02:51:02.437Z,98751.28
2022-09-07T02:53:39.448Z,98746.00
2022-09-07T02:56:18.777Z,98744.19
2022-09-07T02:59:21.344Z,98747.22
2022-09-07T03:02:11.809Z,98751.00
2022-09-07T03:05:15.035Z,98750.38
2022-09-07T03:07:59.463Z,98747.94
2022-09-07T03:10:28.667Z,98752.38
2022-09-07T03:12:56.296Z,98744.47
2022-09-07T03:15:27.784Z,98733.94
2022-09-07T03:17:55.338Z,98731.28
2022-09-07T03:20:23.295Z,98737.78
2022-09-07T03:22:52.809Z,98734.53
2022-09-07T03:25:20.759Z,98743.84
2022-09-07T03:27:48.323Z,98743.03
2022-09-07T03:30:15.964Z,98742.22
2022-09-07T03:32:43.510Z,98739.00
2022-09-07T03:35:14.318Z,98747.50
2022-09-07T03:37:42.067Z,98745.06
2022-09-07T03:40:13.577Z,98735.31
2022-09-07T03:42:41.934Z,98734.75
2022-09-07T03:45:11.100Z,98735.09
2022-09-07T03:47:39.142Z,98745.66
2022-09-07T03:50:07.806Z,98738.38
2022-09-07T03:52:36.262Z,98731.28
2022-09-07T03:55:05.112Z,98745.69
2022-09-07T03:57:32.761Z,98745.09
2022-09-07T04:00:00.350Z,98743.88
2022-09-07T04:02:27.972Z,98738.59
2022-09-07T04:04:55.515Z,98741.44
2022-09-07T04:07:23.148Z,98746.72
2022-09-07T04:09:53.571Z,98734.97
2022-09-07T04:12:21.046Z,98741.44
2022-09-07T04:14:49.096Z,98736.97
2022-09-07T04:17:16.619Z,98741.84
2022-09-07T04:19:44.252Z,98730.47
2022-09-07T04:22:11.732Z,98735.31
2022-09-07T04:24:39.239Z,98726.41
2022-09-07T04:27:06.809Z,98727.19
2022-09-07T04:29:34.397Z,98722.69
2022-09-07T04:32:02.643Z,98733.84
2022-09-07T04:34:30.292Z,98726.53
2022-09-07T04:36:57.846Z,98734.41
2022-09-07T04:39:25.544Z,98729.69
2022-09-07T04:41:53.098Z,98729.91
2022-09-07T04:44:20.626Z,98737.97
2022-09-07T04:46:48.093Z,98741.97
2022-09-07T04:49:15.601Z,98744.56
2022-09-07T04:51:44.292Z,98751.47
2022-09-07T04:54:12.378Z,98751.28
2022-09-07T04:56:39.960Z,98740.03
2022-09-07T04:59:07.580Z,98744.19
2022-09-07T05:01:35.329Z,98744.09
2022-09-07T05:04:05.078Z,98737.56
2022-09-07T05:06:33.278Z,98742.75
2022-09-07T05:09:01.276Z,98748.09
2022-09-07T05:11:30.044Z,98752.84
2022-09-07T05:13:59.759Z,98751.22
2022-09-07T05:16:28.718Z,98751.16
2022-09-07T05:19:01.565Z,98744.47
2022-09-07T05:21:34.499Z,98754.34
2022-09-07T05:24:02.909Z,98747.94
2022-09-07T05:26:33.869Z,98752.06
2022-09-07T05:31:51.842Z,98747.13
2022-09-07T05:34:35.011Z,98745.28
2022-09-07T05:37:02.768Z,98748.69
2022-09-07T05:39:30.867Z,98757.66
2022-09-07T05:41:58.412Z,98750.00
2022-09-07T05:47:09.763Z,98754.50
2022-09-07T05:49:37.581Z,98755.09
2022-09-07T05:52:05.339Z,98752.09
2022-09-07T05:54:32.893Z,98760.50
2022-09-07T05:57:00.442Z,98766.03
2022-09-07T05:59:27.927Z,98767.25
2022-09-07T06:01:55.643Z,98776.06
2022-09-07T06:04:23.258Z,98772.03
2022-09-07T06:07:20.151Z,98771.25
2022-09-07T06:12:26.492Z,98771.13
2022-09-07T06:14:54.007Z,98764.66
2022-09-07T06:17:21.479Z,98757.13
2022-09-07T06:19:48.994Z,98764.22
2022-09-07T06:22:17.008Z,98763.47
2022-09-07T06:24:44.534Z,98770.41
2022-09-07T06:27:12.419Z,98747.19
2022-09-07T06:29:40.035Z,98748.09
2022-09-07T06:34:55.188Z,98753.44
2022-09-07T06:37:22.864Z,98759.22
2022-09-07T06:39:50.385Z,98748.16
2022-09-07T06:42:17.677Z,98745.59
2022-09-07T06:44:45.066Z,98756.50
2022-09-07T06:47:12.413Z,98749.53
2022-09-07T06:49:39.700Z,98751.97
2022-09-07T06:52:07.163Z,98754.34
2022-09-07T06:57:21.941Z,98753.31
2022-09-07T06:59:49.477Z,98757.09
2022-09-07T07:02:16.826Z,98762.06
2022-09-07T07:04:44.236Z,98753.97
2022-09-07T07:07:13.938Z,98754.63
2022-09-07T07:09:42.288Z,98760.00
2022-09-07T07:12:10.963Z,98763.25
2022-09-07T07:14:44.073Z,98769.94
2022-09-07T07:17:13.415Z,98775.03
2022-09-07T07:19:41.217Z,98767.78
2022-09-07T07:22:45.549Z,98770.03
2022-09-07T07:24:56.368Z,98774.19
2022-09-07T07:27:24.144Z,98774.25
2022-09-07T07:29:52.679Z,98769.44
2022-09-07T07:32:20.236Z,98783.59
2022-09-07T07:34:47.656Z,98785.88
2022-09-07T07:37:16.169Z,98785.97
2022-09-07T07:42:32.706Z,98789.59
2022-09-07T07:47:51.642Z,98775.00
2022-09-07T07:50:34.933Z,98781.53
2022-09-07T07:55:51.402Z,98797.63
2022-09-07T07:58:19.629Z,98793.53
2022-09-07T08:00:54.746Z,98800.13
2022-09-07T08:03:24.973Z,98810.03
2022-09-07T08:05:52.933Z,98807.59
2022-09-07T08:08:20.874Z,98799.50
2022-09-07T08:10:48.473Z,98794.59
2022-09-07T08:13:17.137Z,98786.53
2022-09-07T08:15:45.287Z,98793.88
2022-09-07T08:18:14.969Z,98792.66
2022-09-07T08:20:43.085Z,98792.78
2022-09-07T08:23:11.703Z,98797.56
2022-09-07T08:25:39.471Z,98792.94
2022-09-07T08:28:07.138Z,98780.44
2022-09-07T08:30:35.058Z,98791.91
2022-09-07T08:33:02.790Z,98773.16
2022-09-07T08:35:30.304Z,98786.72
2022-09-07T08:37:57.809Z,98781.13
2022-09-07T08:40:25.272Z,98779.47
2022-09-07T08:43:28.880Z,98776.91
2022-09-07T08:46:24.641Z,98771.50
2022-09-07T08:48:53.178Z,98767.59
2022-09-07T08:51:36.278Z,98771.53
2022-09-07T08:54:05.537Z,98764.72
2022-09-07T08:57:20.608Z,98755.28
2022-09-07T08:59:48.600Z,98753.53
2022-09-07T09:02:38.347Z,98757.50
2022-09-07T09:06:11.570Z,98753.16
2022-09-07T09:08:28.667Z,98764.28
2022-09-07T09:11:12.073Z,98755.78
2022-09-07T09:14:02.729Z,98758.31
2022-09-07T09:16:35.491Z,98754.63
2022-09-07T09:19:55.510Z,98752.22
2022-09-07T09:22:28.380Z,98745.72
2022-09-07T09:25:20.363Z,98756.81
2022-09-07T09:27:49.952Z,98746.78
2022-09-07T09:30:22.135Z,98739.66
2022-09-07T09:32:52.901Z,98736.03
2022-09-07T09:35:32.632Z,98737.84
2022-09-07T09:38:03.614Z,98731.03
2022-09-07T09:40:35.244Z,98736.84
2022-09-07T09:43:20.657Z,98736.66
2022-09-07T09:48:48.977Z,98726.19
2022-09-07T09:54:30.532Z,98709.78
2022-09-07T09:56:58.048Z,98720.63
2022-09-07T10:05:50.598Z,98709.59
2022-09-07T10:08:23.964Z,98715.69
2022-09-07T10:11:04.028Z,98711.34
2022-09-07T10:13:53.124Z,98715.69
2022-09-07T10:16:41.443Z,98707.53
2022-09-07T10:19:36.654Z,98704.78
2022-09-07T10:22:22.950Z,98708.84
2022-09-07T10:24:51.055Z,98702.47
2022-09-07T10:27:40.655Z,98693.53
2022-09-07T10:30:16.767Z,98707.91
2022-09-07T10:33:14.347Z,98691.47
2022-09-07T10:35:58.869Z,98691.19
2022-09-07T10:38:34.837Z,98685.66
2022-09-07T10:41:09.742Z,98680.31
2022-09-07T10:43:50.212Z,98686.19
2022-09-07T10:46:56.963Z,98674.34
2022-09-07T10:52:49.533Z,98670.19
2022-09-07T10:55:28.830Z,98679.91
2022-09-07T10:59:01.330Z,98680.94
2022-09-07T11:01:42.927Z,98662.09
2022-09-07T11:04:44.469Z,98666.63
2022-09-07T11:07:50.562Z,98664.38
2022-09-07T11:10:33.278Z,98654.66
2022-09-07T11:13:05.662Z,98657.28
2022-09-07T11:15:42.907Z,98636.78
2022-09-07T11:18:35.323Z,98640.38
2022-09-07T11:21:10.142Z,98637.00
2022-09-07T11:23:45.088Z,98641.91
2022-09-07T11:26:47.786Z,98645.75
2022-09-07T11:29:36.520Z,98635.66
2022-09-07T11:32:15.151Z,98633.00
2022-09-07T11:34:52.152Z,98638.75
2022-09-07T11:37:35.799Z,98630.22
2022-09-07T11:40:31.337Z,98621.03
2022-09-07T11:43:16.489Z,98625.34
2022-09-07T11:45:59.823Z,98621.69
2022-09-07T11:48:43.931Z,98623.66
2022-09-07T11:51:39.795Z,98616.78
2022-09-07T11:54:53.967Z,98616.25
2022-09-07T11:57:54.892Z,98619.56
2022-09-07T12:00:55.418Z,98607.50
2022-09-07T12:03:44.646Z,98603.72
2022-09-07T12:06:35.828Z,98598.50
2022-09-07T12:09:48.156Z,98596.59
2022-09-07T12:12:24.255Z,98598.66
2022-09-07T12:15:15.729Z,98593.88
2022-09-07T12:17:54.953Z,98588.66
2022-09-07T12:20:45.891Z,98591.53
2022-09-07T12:23:16.121Z,98591.56
2022-09-07T12:25:47.546Z,98589.78
2022-09-07T12:28:37.729Z,98580.38
2022-09-07T12:31:12.376Z,98595.03
2022-09-07T12:33:41.035Z,98591.97
2022-09-07T12:36:26.607Z,98594.59
2022-09-07T12:39:25.173Z,98590.91
2022-09-07T12:45:29.969Z,98574.09
2022-09-07T12:48:04.978Z,98581.41
2022-09-07T12:50:56.672Z,98577.94
2022-09-07T12:53:42.323Z,98576.81
2022-09-07T13:00:27.198Z,98579.31
2022-09-07T13:06:03.648Z,98579.66
2022-09-07T13:08:33.409Z,98571.75
2022-09-07T13:11:19.242Z,98576.13
2022-09-07T13:14:05.299Z,98577.38
2022-09-07T13:19:51.450Z,98578.09
2022-09-07T13:22:31.119Z,98569.16
2022-09-07T13:25:27.198Z,98566.22
2022-09-07T13:28:13.941Z,98562.75
2022-09-07T13:31:12.983Z,98559.06
2022-09-07T13:33:51.739Z,98558.75
2022-09-07T13:36:47.515Z,98566.66
2022-09-07T13:39:21.684Z,98570.09
2022-09-07T13:41:56.604Z,98570.69
2022-09-07T13:44:33.520Z,98562.63
2022-09-07T13:47:31.358Z,98576.50
2022-09-07T13:50:26.453Z,98571.91
2022-09-07T13:53:37.641Z,98567.91
2022-09-07T13:56:40.247Z,98578.03
2022-09-07T13:59:21.559Z,98574.53
2022-09-07T14:01:50.797Z,98575.88
2022-09-07T14:04:41.806Z,98577.28
2022-09-07T14:07:20.320Z,98578.56
2022-09-07T14:09:51.321Z,98572.66
2022-09-07T14:12:21.870Z,98576.81
2022-09-07T14:15:47.837Z,98582.72
2022-09-07T14:18:22.357Z,98573.03
2022-09-07T14:20:53.051Z,98583.59
2022-09-07T14:23:30.852Z,98578.00
2022-09-07T14:26:19.191Z,98581.88
2022-09-07T14:28:53.938Z,98581.88
2022-09-07T14:31:24.737Z,98572.00
2022-09-07T14:33:56.938Z,98572.84
2022-09-07T14:36:48.494Z,98575.56
2022-09-07T14:39:20.987Z,98570.91
2022-09-07T14:41:49.591Z,98571.97
2022-09-07T14:44:34.239Z,98574.66
2022-09-07T14:47:29.118Z,98566.59
2022-09-07T14:50:05.186Z,98560.47
2022-09-07T14:53:33.165Z,98558.84
2022-09-07T14:55:41.957Z,98556.03
2022-09-07T14:58:15.583Z,98556.63
2022-09-07T15:03:40.885Z,98556.13
2022-09-07T15:07:00.723Z,98561.63
2022-09-07T15:08:57.797Z,98563.59
2022-09-07T15:11:33.368Z,98566.91
2022-09-07T15:14:17.391Z,98561.56
2022-09-07T15:19:50.384Z,98562.00
2022-09-07T15:22:19.160Z,98563.16
2022-09-07T15:24:48.067Z,98564.53
2022-09-07T15:27:28.734Z,98562.75
2022-09-07T15:29:56.269Z,98568.13
2022-09-07T15:32:23.602Z,98568.41
2022-09-07T15:34:51.045Z,98571.03
2022-09-07T15:40:22.521Z,98560.91
2022-09-07T15:43:19.601Z,98572.53
2022-09-07T15:45:37.520Z,98561.47
2022-09-07T15:48:05.068Z,98568.81
2022-09-07T15:50:32.535Z,98561.09
2022-09-07T15:53:00.882Z,98569.84
2022-09-07T15:55:28.630Z,98566.97
2022-09-07T15:58:10.717Z,98578.94
2022-09-07T16:00:39.200Z,98570.47
2022-09-07T16:03:07.405Z,98571.09
2022-09-07T16:05:35.359Z,98572.66
2022-09-07T16:10:55.692Z,98577.47
2022-09-07T16:13:24.352Z,98567.94
2022-09-07T16:15:51.937Z,98566.69
2022-09-07T16:18:19.318Z,98581.47
2022-09-07T16:20:47.302Z,98578.56
2022-09-07T16:23:16.774Z,98584.25
2022-09-07T16:25:58.904Z,98586.16
2022-09-07T16:28:26.961Z,98590.22
2022-09-07T16:30:55.916Z,98585.38
2022-09-07T16:33:31.227Z,98589.66
2022-09-07T16:36:02.275Z,98595.56
2022-09-07T16:38:47.597Z,98594.50
2022-09-07T16:41:17.222Z,98593.47
2022-09-07T16:43:46.121Z,98583.56
2022-09-07T16:46:16.114Z,98587.31
2022-09-07T16:48:44.103Z,98586.53
2022-09-07T16:51:13.381Z,98588.94
2022-09-07T16:53:41.171Z,98590.25
2022-09-07T16:56:14.003Z,98583.53
2022-09-07T16:58:46.740Z,98579.28
2022-09-07T17:01:19.886Z,98588.88
2022-09-07T17:03:49.524Z,98583.03
2022-09-07T17:06:18.719Z,98581.41
2022-09-07T17:08:47.085Z,98587.28
2022-09-07T17:11:17.413Z,98587.28
2022-09-07T17:13:45.541Z,98593.44
2022-09-07T17:16:15.758Z,98594.94
2022-09-07T17:21:36.997Z,98597.00
2022-09-07T17:24:06.668Z,98603.91
2022-09-07T17:26:34.209Z,98605.53
2022-09-07T17:29:01.646Z,98603.97
2022-09-07T17:34:19.699Z,98606.34
2022-09-07T17:36:47.572Z,98604.94
2022-09-07T17:39:17.180Z,98610.00
2022-09-07T17:41:46.322Z,98607.59
2022-09-07T17:44:13.630Z,98611.81
2022-09-07T17:46:41.125Z,98619.31
2022-09-07T17:49:16.528Z,98615.50
2022-09-07T17:51:45.704Z,98637.84
2022-09-07T17:54:15.697Z,98633.44
2022-09-07T17:56:44.048Z,98639.50
2022-09-07T18:01:59.614Z,98646.06
2022-09-07T18:04:28.243Z,98656.38
2022-09-07T18:06:55.677Z,98655.06
2022-09-07T18:09:23.263Z,98658.97
2022-09-07T18:11:51.013Z,98667.06
2022-09-07T18:14:19.662Z,98668.56
2022-09-07T18:16:49.660Z,98665.88
2022-09-07T18:19:18.664Z,98665.56
2022-09-07T18:21:48.064Z,98665.31
2022-09-07T18:24:19.245Z,98670.13
2022-09-07T18:26:52.449Z,98670.66
2022-09-07T18:29:37.560Z,98668.22
2022-09-07T18:32:09.354Z,98667.94
2022-09-07T18:34:39.513Z,98675.06
2022-09-07T18:37:08.807Z,98664.09
2022-09-07T18:39:36.872Z,98663.56
2022-09-07T18:42:04.295Z,98661.94
2022-09-07T18:47:27.583Z,98666.09
2022-09-07T18:49:55.647Z,98674.53
2022-09-07T18:55:10.685Z,98678.06
2022-09-07T18:57:38.506Z,98682.19
2022-09-07T19:00:08.606Z,98683.91
2022-09-07T19:02:36.250Z,98683.47
2022-09-07T19:07:51.479Z,98688.69
2022-09-07T19:10:19.091Z,98692.19
2022-09-07T19:12:46.796Z,98698.09
2022-09-07T19:15:14.440Z,98695.69
2022-09-07T19:17:41.798Z,98692.16
2022-09-07T19:20:09.821Z,98691.03
2022-09-07T19:22:37.198Z,98687.47
2022-09-07T19:25:06.101Z,98688.53
2022-09-07T19:27:33.596Z,98680.47
2022-09-07T19:30:01.274Z,98678.38
2022-09-07T19:32:28.770Z,98677.09
2022-09-07T19:34:56.053Z,98672.34
2022-09-07T19:37:27.602Z,98678.00
2022-09-07T19:39:55.400Z,98666.84
2022-09-07T19:42:23.804Z,98667.34
2022-09-07T19:44:51.974Z,98670.25
2022-09-07T19:47:20.234Z,98669.69
2022-09-07T19:49:47.673Z,98671.03
2022-09-07T19:52:15.420Z,98675.00
2022-09-07T19:54:42.778Z,98659.88
2022-09-07T19:57:10.228Z,98659.53
2022-09-07T19:59:37.497Z,98660.28
2022-09-07T20:02:04.735Z,98650.13
2022-09-07T20:04:32.089Z,98654.56
2022-09-07T20:06:59.330Z,98658.81
2022-09-07T20:09:27.147Z,98653.75
2022-09-07T20:11:54.633Z,98657.94
2022-09-07T20:14:22.296Z,98659.69
2022-09-07T20:16:49.811Z,98652.88
2022-09-07T20:19:17.510Z,98654.38
2022-09-07T20:21:44.906Z,98660.66
2022-09-07T20:24:12.793Z,98656.88
2022-09-07T20:26:40.149Z,98656.56
2022-09-07T20:31:55.779Z,98657.53
2022-09-07T20:34:23.105Z,98657.53
2022-09-07T20:36:50.906Z,98660.03
2022-09-07T20:39:19.031Z,98663.50
2022-09-07T20:41:47.005Z,98663.28
2022-09-07T20:44:14.437Z,98656.94
2022-09-07T20:46:42.105Z,98660.84
2022-09-07T20:49:09.865Z,98662.00
2022-09-07T20:51:37.426Z,98669.25
2022-09-07T20:54:04.735Z,98662.78
2022-09-07T20:56:31.977Z,98657.50
2022-09-07T20:59:01.710Z,98661.44
2022-09-07T21:01:30.324Z,98658.28
2022-09-07T21:03:59.201Z,98654.84
2022-09-07T21:06:28.187Z,98662.94
2022-09-07T21:08:57.156Z,98665.47
2022-09-07T21:11:32.716Z,98661.13
2022-09-07T21:14:02.324Z,98659.03
2022-09-07T21:16:30.982Z,98651.91
2022-09-07T21:18:59.901Z,98662.53
2022-09-07T21:21:29.113Z,98660.19
2022-09-07T21:23:59.085Z,98660.66
2022-09-07T21:26:28.100Z,98659.53
2022-09-07T21:29:00.268Z,98659.97
2022-09-07T21:31:29.299Z,98652.50
2022-09-07T21:33:58.663Z,98670.03
2022-09-07T21:36:27.000Z,98666.22
2022-09-07T21:38:54.750Z,98670.81
2022-09-07T21:41:23.954Z,98667.13
2022-09-07T21:43:58.373Z,98670.81
2022-09-07T21:46:26.898Z,98667.25
2022-09-07T21:48:55.642Z,98666.91
2022-09-07T21:51:23.801Z,98668.50
2022-09-07T21:54:00.695Z,98653.91
2022-09-07T21:56:29.567Z,98658.75
2022-09-07T21:58:59.121Z,98665.66
2022-09-07T22:01:28.088Z,98662.75
2022-09-07T22:04:01.130Z,98661.59
2022-09-07T22:06:28.844Z,98655.38
2022-09-07T22:08:56.412Z,98650.56
2022-09-07T22:11:26.054Z,98648.25
2022-09-07T22:13:55.675Z,98648.59
2022-09-07T22:16:23.451Z,98647.31
2022-09-07T22:18:50.803Z,98646.28
2022-09-07T22:21:24.131Z,98651.81
2022-09-07T22:23:54.351Z,98645.94
2022-09-07T22:26:23.414Z,98647.31
2022-09-07T22:28:51.146Z,98645.38
2022-09-07T22:31:21.517Z,98648.03
2022-09-07T22:33:49.992Z,98645.03
2022-09-07T22:36:19.862Z,98650.88
2022-09-07T22:38:49.418Z,98649.03
2022-09-07T22:41:19.634Z,98652.41
2022-09-07T22:43:47.618Z,98651.63
2022-09-07T22:46:15.007Z,98645.97
2022-09-07T22:48:43.022Z,98654.59
2022-09-07T22:51:11.425Z,98653.13
2022-09-07T22:53:40.683Z,98658.88
2022-09-07T22:56:19.832Z,98650.50
2022-09-07T22:59:01.518Z,98653.22
2022-09-07T23:01:30.294Z,98651.88
2022-09-07T23:03:58.373Z,98647.81
2022-09-07T23:06:34.548Z,98647.50
2022-09-07T23:09:06.764Z,98649.44
2022-09-07T23:11:34.183Z,98643.69
2022-09-07T23:14:03.761Z,98637.94
2022-09-07T23:16:31.160Z,98638.25
2022-09-07T23:18:59.586Z,98630.91
2022-09-07T23:21:27.653Z,98632.88
2022-09-07T23:23:57.474Z,98625.13
2022-09-07T23:26:26.664Z,98635.50
2022-09-07T23:29:02.420Z,98635.03
2022-09-07T23:31:31.401Z,98625.81
2022-09-07T23:33:59.699Z,98615.34
2022-09-07T23:36:27.058Z,98614.19
2022-09-07T23:38:56.137Z,98617.41
2022-09-07T23:41:24.937Z,98624.53
2022-09-07T23:43:53.094Z,98614.16
2022-09-07T23:46:21.110Z,98608.88
2022-09-07T23:48:49.087Z,98609.47
2022-09-07T23:51:21.249Z,98603.72
2022-09-07T23:53:50.996Z,98603.28
2022-09-07T23:56:18.218Z,98606.97
2022-09-07T23:58:45.556Z,98607.78
